Time;durP1;ratioP1;P1;durP2;ratioP2;P2;SDS_P1;SDS_P2;PMS_P1;PMS_P2;Temp;Humidity;BMP_temperature;BMP_pressure;BME280_temperature;BME280_humidity;BME280_pressure;Samples;Min_cycle;Max_cycle;Signal;HPM_P1;HPM_P2
2023/07/03 00:01:40;;;;;;;19.98;8.70;;;;;11.80;93932.00;;;;7401798;19;20171;-79
2023/07/03 00:04:13;;;;;;;16.33;8.93;;;;;11.70;93936.00;;;;7402073;19;20172;-78
2023/07/03 00:06:49;;;;;;;18.02;8.73;;;;;11.60;93937.00;;;;7401006;19;20144;-78
2023/07/03 00:09:30;;;;;;;19.55;9.38;;;;;11.30;93937.00;;;;7402277;19;20152;-78
2023/07/03 00:11:58;;;;;;;17.40;9.48;;;;;11.20;93951.00;;;;7402974;19;20457;-78
2023/07/03 00:14:34;;;;;;;22.15;10.00;;;;;11.20;93933.00;;;;7401122;19;20144;-79
2023/07/03 00:17:02;;;;;;;18.23;9.38;;;;;11.30;93938.00;;;;7400791;19;20465;-78
2023/07/03 00:19:36;;;;;;;19.42;8.88;;;;;11.20;93937.00;;;;7404055;19;20733;-79
2023/07/03 00:22:06;;;;;;;20.20;8.73;;;;;11.10;93935.00;;;;7404351;19;20129;-77
2023/07/03 00:24:39;;;;;;;16.92;9.95;;;;;11.20;93944.00;;;;7403384;19;20600;-77
2023/07/03 00:27:13;;;;;;;19.77;9.48;;;;;11.20;93935.00;;;;7403473;19;20140;-77
2023/07/03 00:29:41;;;;;;;26.13;9.55;;;;;11.20;93927.00;;;;7403981;19;20137;-76
2023/07/03 00:32:15;;;;;;;23.95;9.57;;;;;11.50;93932.00;;;;7403197;19;20135;-77
2023/07/03 00:34:43;;;;;;;19.40;8.90;;;;;11.60;93929.00;;;;7403358;19;20615;-77
2023/07/03 00:37:17;;;;;;;20.17;8.97;;;;;11.70;93931.00;;;;7403766;19;20494;-76
2023/07/03 00:39:51;;;;;;;22.15;8.77;;;;;11.80;93932.00;;;;7401818;19;20153;-77
2023/07/03 00:42:21;;;;;;;21.38;8.80;;;;;11.90;93924.00;;;;7396873;19;20163;-77
2023/07/03 00:44:59;;;;;;;17.63;8.97;;;;;12.00;93935.00;;;;7395486;19;20607;-76
2023/07/03 00:47:27;;;;;;;20.50;9.68;;;;;12.10;93934.00;;;;7401158;19;20636;-78
2023/07/03 00:50:06;;;;;;;18.25;8.90;;;;;12.10;93931.00;;;;7402109;19;20152;-77
2023/07/03 00:52:41;;;;;;;18.92;8.30;;;;;12.20;93931.00;;;;7404012;19;20139;-77
2023/07/03 00:55:13;;;;;;;17.02;8.70;;;;;12.30;93929.00;;;;7404942;19;20132;-75
2023/07/03 00:57:47;;;;;;;18.92;8.45;;;;;12.20;93933.00;;;;7404517;19;20176;-76
2023/07/03 01:00:15;;;;;;;18.95;9.10;;;;;12.20;93927.00;;;;7404447;19;20145;-76
2023/07/03 01:03:23;;;;;;;19.05;9.35;;;;;12.10;93923.00;;;;7393946;19;20192;-78
2023/07/03 01:05:58;;;;;;;18.42;9.60;;;;;12.00;93929.00;;;;7397434;19;20526;-77
2023/07/03 01:08:27;;;;;;;18.23;8.70;;;;;11.90;93923.00;;;;7398736;19;20547;-77
2023/07/03 01:11:01;;;;;;;21.20;9.10;;;;;11.80;93921.00;;;;7399670;19;20172;-77
2023/07/03 01:13:33;;;;;;;20.10;9.27;;;;;11.80;93915.00;;;;7400339;19;20203;-77
2023/07/03 01:16:08;;;;;;;18.33;9.57;;;;;11.70;93915.00;;;;7399897;19;20145;-77
2023/07/03 01:18:45;;;;;;;16.05;8.48;;;;;11.70;93916.00;;;;7399494;19;20868;-78
2023/07/03 01:21:26;;;;;;;21.83;9.02;;;;;11.70;93921.00;;;;7399684;19;20140;-78
2023/07/03 01:24:04;;;;;;;18.50;9.10;;;;;11.60;93925.00;;;;7400852;19;20143;-78
2023/07/03 01:26:46;;;;;;;20.58;9.32;;;;;11.60;93919.00;;;;7397749;19;20190;-78
2023/07/03 01:29:14;;;;;;;20.65;9.15;;;;;11.50;93919.00;;;;7398824;19;20492;-78
2023/07/03 01:31:49;;;;;;;18.00;9.02;;;;;11.50;93919.00;;;;7400447;19;20144;-77
2023/07/03 01:34:18;;;;;;;24.98;10.15;;;;;11.60;93916.00;;;;7397785;19;20648;-77
2023/07/03 01:36:54;;;;;;;21.27;9.32;;;;;11.60;93926.00;;;;7399781;19;20211;-79
2023/07/03 01:39:25;;;;;;;22.15;10.32;;;;;11.70;93920.00;;;;7399092;19;20149;-77
2023/07/03 01:41:59;;;;;;;20.35;10.00;;;;;11.70;93927.00;;;;7397780;19;20598;-77
2023/07/03 01:44:36;;;;;;;18.63;9.43;;;;;11.60;93920.00;;;;7400065;19;20147;-79
2023/07/03 01:47:13;;;;;;;19.77;8.50;;;;;11.60;93925.00;;;;7396417;19;20598;-76
2023/07/03 01:49:49;;;;;;;16.10;9.20;;;;;11.70;93920.00;;;;7395593;19;20599;-76
2023/07/03 01:52:30;;;;;;;21.05;10.18;;;;;11.80;93910.00;;;;7398480;19;20137;-79
2023/07/03 01:55:11;;;;;;;19.27;10.10;;;;;11.80;93910.00;;;;7396126;19;20487;-77
2023/07/03 01:58:17;;;;;;;21.27;10.10;;;;;11.90;93914.00;;;;7397655;19;20136;-78
2023/07/03 02:01:03;;;;;;;25.88;10.93;;;;;12.00;93904.00;;;;7395170;19;20155;-77
2023/07/03 02:03:43;;;;;;;21.20;9.55;;;;;12.10;93915.00;;;;7395967;19;20187;-77
2023/07/03 02:06:40;;;;;;;19.05;9.35;;;;;12.10;93900.00;;;;7395889;19;20136;-76
2023/07/03 02:09:09;;;;;;;20.67;9.55;;;;;12.10;93901.00;;;;7396884;19;20140;-77
2023/07/03 02:11:47;;;;;;;18.73;9.23;;;;;12.20;93905.00;;;;7396488;19;20208;-81
2023/07/03 02:14:15;;;;;;;18.63;8.90;;;;;12.10;93905.00;;;;7397939;19;20188;-80
2023/07/03 02:16:52;;;;;;;18.00;9.00;;;;;12.20;93901.00;;;;7397326;19;20153;-83
2023/07/03 02:19:28;;;;;;;23.08;9.85;;;;;12.20;93911.00;;;;7396199;19;20596;-80
2023/07/03 02:22:04;;;;;;;16.42;9.18;;;;;12.20;93909.00;;;;7397722;19;20148;-82
2023/07/03 02:24:38;;;;;;;19.80;9.10;;;;;12.20;93907.00;;;;7398041;19;20137;-82
2023/07/03 02:27:12;;;;;;;18.67;9.50;;;;;12.30;93909.00;;;;7396827;19;20154;-84
2023/07/03 02:29:49;;;;;;;17.80;9.70;;;;;12.30;93901.00;;;;7397582;19;20144;-82
2023/07/03 02:32:30;;;;;;;17.67;8.77;;;;;12.60;93904.00;;;;7397557;19;20593;-82
2023/07/03 02:34:58;;;;;;;21.45;8.85;;;;;12.80;93906.00;;;;7397160;19;20148;-82
2023/07/03 02:37:32;;;;;;;22.10;8.20;;;;;13.10;93897.00;;;;7395970;19;20599;-82
2023/07/03 02:40:13;;;;;;;17.10;7.97;;;;;13.50;93902.00;;;;7395955;19;20136;-81
2023/07/03 02:42:48;;;;;;;16.70;8.60;;;;;13.70;93900.00;;;;7393111;19;20137;-82
2023/07/03 02:45:16;;;;;;;18.15;8.40;;;;;13.90;93896.00;;;;7398503;19;20141;-81
2023/07/03 02:47:50;;;;;;;17.67;8.20;;;;;14.00;93895.00;;;;7393839;19;20638;-80
2023/07/03 02:50:24;;;;;;;19.30;8.40;;;;;14.10;93886.00;;;;7393783;19;20156;-79
2023/07/03 02:52:58;;;;;;;17.75;8.65;;;;;14.10;93889.00;;;;7396227;19;20622;-78
2023/07/03 02:55:26;;;;;;;15.30;7.97;;;;;14.40;93884.00;;;;7394838;19;20176;-80
2023/07/03 02:57:55;;;;;;;22.55;8.50;;;;;14.40;93883.00;;;;7395327;19;20141;-80
2023/07/03 03:00:29;;;;;;;18.40;8.40;;;;;14.40;93876.00;;;;7396263;19;20548;-79
2023/07/03 03:02:57;;;;;;;16.02;8.32;;;;;14.50;93883.00;;;;7395372;19;20175;-82
2023/07/03 03:05:32;;;;;;;16.13;7.90;;;;;14.60;93885.00;;;;7394671;19;20148;-82
2023/07/03 03:08:07;;;;;;;20.35;8.73;;;;;14.60;93880.00;;;;7393966;19;20602;-82
2023/07/03 03:10:43;;;;;;;19.77;8.50;;;;;14.40;93878.00;;;;7396698;19;20145;-79
2023/07/03 03:13:12;;;;;;;19.65;7.97;;;;;14.40;93873.00;;;;7394213;19;20158;-80
2023/07/03 03:15:46;;;;;;;18.55;7.95;;;;;14.40;93882.00;;;;7395741;19;20141;-80
2023/07/03 03:18:14;;;;;;;21.67;7.97;;;;;14.40;93879.00;;;;7396710;19;20133;-81
2023/07/03 03:20:43;;;;;;;18.52;7.68;;;;;14.30;93885.00;;;;7394633;19;20587;-81
2023/07/03 03:23:20;;;;;;;16.80;8.18;;;;;14.20;93886.00;;;;7394569;19;20474;-81
2023/07/03 03:25:55;;;;;;;16.55;8.00;;;;;14.30;93884.00;;;;7395099;19;20276;-81
2023/07/03 03:28:29;;;;;;;23.10;8.00;;;;;14.30;93892.00;;;;7394729;19;20144;-82
2023/07/03 03:31:03;;;;;;;25.90;8.48;;;;;14.30;93886.00;;;;7394502;19;20140;-81
2023/07/03 03:33:37;;;;;;;19.77;7.85;;;;;14.20;93888.00;;;;7392678;19;20136;-79
2023/07/03 03:36:12;;;;;;;20.55;8.55;;;;;14.40;93878.00;;;;7394525;19;20128;-82
2023/07/03 03:38:48;;;;;;;15.27;7.70;;;;;14.30;93889.00;;;;7394833;19;20140;-82
2023/07/03 03:41:18;;;;;;;17.48;7.68;;;;;14.40;93890.00;;;;7394590;19;20143;-80
2023/07/03 03:43:47;;;;;;;19.75;8.30;;;;;14.40;93890.00;;;;7390343;19;20133;-81
2023/07/03 03:46:21;;;;;;;17.08;7.38;;;;;14.40;93884.00;;;;7394320;19;20599;-80
2023/07/03 03:48:49;;;;;;;23.17;8.38;;;;;14.50;93889.00;;;;7394265;19;20141;-80
2023/07/03 03:51:24;;;;;;;22.23;9.07;;;;;14.70;93885.00;;;;7395818;19;20188;-81
2023/07/03 03:53:52;;;;;;;18.42;7.80;;;;;14.80;93881.00;;;;7393090;19;20617;-81
2023/07/03 03:56:26;;;;;;;16.38;7.75;;;;;14.80;93884.00;;;;7395947;19;20133;-82
2023/07/03 03:58:53;;;;;;;18.95;7.45;;;;;14.80;93881.00;;;;7394506;19;20561;-80
2023/07/03 04:01:28;;;;;;;14.43;7.68;;;;;14.80;93881.00;;;;7392815;19;20148;-80
2023/07/03 04:04:03;;;;;;;16.52;7.32;;;;;14.80;93896.00;;;;7391965;19;20162;-80
2023/07/03 04:06:38;;;;;;;17.20;7.10;;;;;14.90;93889.00;;;;7394397;19;20133;-80
2023/07/03 04:09:07;;;;;;;14.85;7.20;;;;;14.90;93888.00;;;;7394226;19;20153;-82
2023/07/03 04:11:41;;;;;;;17.13;7.47;;;;;14.90;93896.00;;;;7394100;19;20156;-81
2023/07/03 04:14:09;;;;;;;16.33;8.30;;;;;15.00;93892.00;;;;7394465;19;20580;-80
2023/07/03 04:16:45;;;;;;;17.45;8.63;;;;;15.00;93889.00;;;;7394099;19;20140;-78
2023/07/03 04:19:14;;;;;;;19.65;8.63;;;;;15.00;93899.00;;;;7398321;19;20133;-81
2023/07/03 04:21:48;;;;;;;20.42;8.05;;;;;15.10;93893.00;;;;7400398;19;20136;-80
2023/07/03 04:24:15;;;;;;;17.52;8.05;;;;;15.20;93899.00;;;;7399813;19;20163;-78
2023/07/03 04:26:54;;;;;;;18.73;7.40;;;;;15.20;93894.00;;;;7401368;19;20128;-81
2023/07/03 04:29:30;;;;;;;14.77;7.57;;;;;15.10;93895.00;;;;7399558;19;20141;-80
2023/07/03 04:31:57;;;;;;;16.08;7.93;;;;;15.20;93900.00;;;;7399803;19;20630;-76
2023/07/03 04:34:32;;;;;;;19.80;7.60;;;;;15.30;93898.00;;;;7400288;19;20144;-74
2023/07/03 04:37:08;;;;;;;20.13;7.78;;;;;15.30;93912.00;;;;7399747;19;20152;-75
2023/07/03 04:39:37;;;;;;;18.23;7.57;;;;;15.30;93908.00;;;;7399164;19;20148;-74
2023/07/03 04:42:13;;;;;;;17.92;7.93;;;;;15.10;93907.00;;;;7400622;19;20152;-75
2023/07/03 04:44:41;;;;;;;17.85;7.97;;;;;14.90;93911.00;;;;7399329;19;20721;-75
2023/07/03 04:47:16;;;;;;;17.23;8.20;;;;;14.80;93919.00;;;;7399274;19;20137;-76
2023/07/03 04:49:48;;;;;;;18.17;7.47;;;;;14.90;93910.00;;;;7397492;19;20145;-77
2023/07/03 04:52:23;;;;;;;15.73;8.10;;;;;14.80;93912.00;;;;7399990;19;20128;-74
2023/07/03 04:54:57;;;;;;;13.93;7.35;;;;;14.90;93916.00;;;;7398236;19;20247;-75
2023/07/03 04:57:31;;;;;;;23.30;7.82;;;;;14.90;93914.00;;;;7399437;19;20204;-75
2023/07/03 05:00:00;;;;;;;16.60;8.27;;;;;14.80;93921.00;;;;7399313;19;20161;-75
2023/07/03 05:02:40;;;;;;;19.08;8.27;;;;;14.80;93920.00;;;;7398664;19;20574;-74
2023/07/03 05:05:16;;;;;;;15.57;7.70;;;;;14.80;93922.00;;;;7399643;19;20228;-75
2023/07/03 05:07:50;;;;;;;16.65;7.63;;;;;14.70;93931.00;;;;7397212;19;20148;-76
2023/07/03 05:10:19;;;;;;;15.48;7.72;;;;;14.80;93920.00;;;;7397544;19;20824;-75
2023/07/03 05:12:53;;;;;;;17.67;7.72;;;;;14.70;93929.00;;;;7399062;19;20155;-76
2023/07/03 05:15:24;;;;;;;20.10;7.65;;;;;14.50;93885.00;;;;7399598;19;20166;-77
2023/07/03 05:17:56;;;;;;;15.82;7.65;;;;;14.60;93913.00;;;;7398589;19;20145;-76
2023/07/03 05:20:31;;;;;;;14.68;7.53;;;;;14.80;93933.00;;;;7400270;19;20505;-75
2023/07/03 05:23:05;;;;;;;20.58;7.97;;;;;14.80;93932.00;;;;7398847;19;20156;-74
2023/07/03 05:25:32;;;;;;;19.60;7.45;;;;;14.80;93927.00;;;;7395061;19;20145;-75
2023/07/03 05:28:07;;;;;;;13.73;7.53;;;;;14.90;93937.00;;;;7396279;19;20561;-76
2023/07/03 05:30:41;;;;;;;15.38;7.50;;;;;15.20;93911.00;;;;7398116;19;20129;-77
2023/07/03 05:33:10;;;;;;;21.85;7.63;;;;;15.30;93930.00;;;;7397186;19;20152;-75
2023/07/03 05:35:45;;;;;;;14.02;7.00;;;;;15.30;93930.00;;;;7397985;19;20157;-75
2023/07/03 05:38:18;;;;;;;15.20;6.97;;;;;15.30;93936.00;;;;7398751;19;20133;-75
2023/07/03 05:40:53;;;;;;;16.85;7.18;;;;;15.60;93937.00;;;;7397705;19;20144;-79
2023/07/03 05:43:25;;;;;;;14.23;7.53;;;;;15.80;93933.00;;;;7397141;19;20163;-78
2023/07/03 05:46:00;;;;;;;21.85;6.80;;;;;15.80;93934.00;;;;7398103;19;20154;-80
2023/07/03 05:48:27;;;;;;;20.75;7.32;;;;;15.80;93935.00;;;;7395619;19;20149;-80
2023/07/03 05:51:02;;;;;;;14.20;6.47;;;;;15.80;93936.00;;;;7396903;19;20152;-79
2023/07/03 05:53:29;;;;;;;16.65;7.57;;;;;15.60;93939.00;;;;7396059;19;20731;-78
2023/07/03 05:56:04;;;;;;;15.65;7.55;;;;;15.70;93933.00;;;;7396948;19;20165;-81
2023/07/03 05:58:38;;;;;;;16.67;7.10;;;;;15.70;93946.00;;;;7398111;19;20133;-79
2023/07/03 06:01:12;;;;;;;15.68;7.53;;;;;15.50;93945.00;;;;7396976;19;20140;-78
2023/07/03 06:03:55;;;;;;;16.38;7.28;;;;;15.60;93943.00;;;;7395483;19;20631;-78
2023/07/03 06:06:30;;;;;;;17.85;7.55;;;;;15.70;93950.00;;;;7396216;19;20150;-78
2023/07/03 06:09:07;;;;;;;17.48;7.53;;;;;15.70;93956.00;;;;7396119;19;20141;-80
2023/07/03 06:11:34;;;;;;;16.02;7.03;;;;;15.70;93948.00;;;;7397187;19;20152;-81
2023/07/03 06:14:17;;;;;;;12.75;7.18;;;;;15.80;93943.00;;;;7395921;19;20165;-78
2023/07/03 06:16:48;;;;;;;24.25;8.43;;;;;15.90;93951.00;;;;7395701;19;20571;-77
2023/07/03 06:19:23;;;;;;;14.90;7.55;;;;;15.70;93964.00;;;;7397136;19;20487;-80
2023/07/03 06:21:51;;;;;;;17.33;8.70;;;;;15.70;93955.00;;;;7395753;19;20149;-78
2023/07/03 06:24:25;;;;;;;14.95;7.13;;;;;15.60;93966.00;;;;7395421;19;20153;-80
2023/07/03 06:27:00;;;;;;;16.85;6.93;;;;;15.80;93964.00;;;;7396735;19;20129;-81
2023/07/03 06:29:36;;;;;;;14.40;7.32;;;;;16.00;93966.00;;;;7395813;19;20161;-78
2023/07/03 06:32:11;;;;;;;16.00;7.60;;;;;15.90;93966.00;;;;7396750;19;20486;-80
2023/07/03 06:34:44;;;;;;;21.67;7.95;;;;;15.80;93970.00;;;;7397915;19;20200;-79
2023/07/03 06:37:18;;;;;;;16.42;7.50;;;;;15.90;93961.00;;;;7397427;19;20196;-83
2023/07/03 06:39:49;;;;;;;17.42;7.57;;;;;15.80;93974.00;;;;7395527;19;20603;-78
2023/07/03 06:42:22;;;;;;;18.13;7.32;;;;;16.00;93979.00;;;;7390824;19;20602;-77
2023/07/03 06:44:50;;;;;;;19.63;7.32;;;;;16.50;93962.00;;;;7396972;19;20150;-80
2023/07/03 06:47:24;;;;;;;15.85;7.20;;;;;16.60;93976.00;;;;7394728;19;20132;-78
2023/07/03 06:49:52;;;;;;;23.08;7.72;;;;;16.50;93977.00;;;;7394874;19;20622;-80
2023/07/03 06:52:26;;;;;;;14.32;6.95;;;;;16.40;93983.00;;;;7396526;19;20603;-77
2023/07/03 06:55:01;;;;;;;19.33;7.20;;;;;16.10;93976.00;;;;7395049;19;20152;-74
2023/07/03 06:57:35;;;;;;;18.55;7.85;;;;;16.10;93980.00;;;;7396082;19;20165;-75
2023/07/03 07:00:05;;;;;;;16.38;7.68;;;;;16.10;93973.00;;;;7395809;19;20780;-73
2023/07/03 07:02:40;;;;;;;17.58;7.40;;;;;16.20;93985.00;;;;7392734;19;20170;-74
2023/07/03 07:05:21;;;;;;;16.92;7.70;;;;;16.00;93989.00;;;;7394786;19;20151;-79
2023/07/03 07:07:48;;;;;;;21.58;8.20;;;;;16.30;93983.00;;;;7395588;19;20192;-76
2023/07/03 07:10:24;;;;;;;15.20;7.30;;;;;16.70;93959.00;;;;7395909;19;20156;-74
2023/07/03 07:12:58;;;;;;;19.50;7.00;;;;;17.00;93984.00;;;;7394096;19;20152;-74
2023/07/03 07:15:41;;;;;;;15.05;7.28;;;;;16.60;93986.00;;;;7395106;19;20449;-77
2023/07/03 07:18:15;;;;;;;20.45;8.27;;;;;16.40;93992.00;;;;7396939;19;20123;-76
2023/07/03 07:20:50;;;;;;;16.75;8.00;;;;;16.70;93986.00;;;;7393710;19;20204;-75
2023/07/03 07:23:17;;;;;;;15.23;8.30;;;;;16.80;93991.00;;;;7394957;19;20148;-77
2023/07/03 07:25:55;;;;;;;16.73;8.15;;;;;17.00;93992.00;;;;7395037;19;20148;-75
2023/07/03 07:28:25;;;;;;;14.55;7.75;;;;;17.20;94002.00;;;;7393421;19;20125;-78
2023/07/03 07:30:59;;;;;;;19.30;8.18;;;;;17.30;93986.00;;;;7394781;19;20616;-77
2023/07/03 07:33:31;;;;;;;13.00;7.03;;;;;17.70;93995.00;;;;7396087;19;20160;-75
2023/07/03 07:36:11;;;;;;;18.85;8.13;;;;;17.30;93998.00;;;;7393974;19;20144;-74
2023/07/03 07:38:39;;;;;;;20.63;8.27;;;;;16.80;93998.00;;;;7393407;19;20169;-75
2023/07/03 07:41:14;;;;;;;16.23;7.72;;;;;17.10;93998.00;;;;7395129;19;20139;-73
2023/07/03 07:43:52;;;;;;;19.75;8.45;;;;;16.30;94003.00;;;;7396187;19;20137;-76
2023/07/03 07:46:30;;;;;;;20.45;7.70;;;;;16.30;94005.00;;;;7389506;19;20147;-77
2023/07/03 07:48:58;;;;;;;16.58;8.15;;;;;16.60;94003.00;;;;7394555;19;20623;-75
2023/07/03 07:51:33;;;;;;;18.75;8.40;;;;;16.90;94003.00;;;;7390720;19;20145;-75
2023/07/03 07:54:07;;;;;;;15.68;7.35;;;;;17.30;93985.00;;;;7396253;19;20159;-76
2023/07/03 07:56:41;;;;;;;18.15;7.35;;;;;17.60;94006.00;;;;7402263;19;20488;-75
2023/07/03 07:59:09;;;;;;;18.30;7.57;;;;;17.70;94017.00;;;;7402684;19;20137;-77
2023/07/03 08:01:46;;;;;;;15.02;6.97;;;;;16.90;93989.00;;;;7398947;19;20132;-80
2023/07/03 08:04:23;;;;;;;13.98;7.28;;;;;16.90;93998.00;;;;7399671;19;20191;-75
2023/07/03 08:06:59;;;;;;;14.63;7.43;;;;;17.40;93995.00;;;;7401463;19;20132;-76
2023/07/03 08:09:27;;;;;;;16.60;7.53;;;;;16.90;93997.00;;;;7399381;19;20148;-78
2023/07/03 08:12:03;;;;;;;20.25;7.05;;;;;17.00;93979.00;;;;7401498;19;20144;-76
2023/07/03 08:14:30;;;;;;;16.20;7.25;;;;;16.80;94010.00;;;;7398418;19;20636;-76
2023/07/03 08:17:05;;;;;;;18.83;7.75;;;;;17.00;93986.00;;;;7395421;19;20144;-75
2023/07/03 08:19:32;;;;;;;18.38;7.07;;;;;18.10;93999.00;;;;7395832;19;20149;-76
2023/07/03 08:22:06;;;;;;;17.17;7.28;;;;;18.40;93988.00;;;;7395703;19;20159;-76
2023/07/03 08:24:40;;;;;;;15.23;7.18;;;;;17.80;93985.00;;;;7393256;19;20152;-83
2023/07/03 08:27:10;;;;;;;14.77;7.07;;;;;18.00;94006.00;;;;7397499;19;20608;-77
2023/07/03 08:29:46;;;;;;;17.00;6.70;;;;;18.50;93992.00;;;;7395859;19;20143;-76
2023/07/03 08:32:15;;;;;;;18.95;7.70;;;;;17.70;93976.00;;;;7395071;19;20503;-75
2023/07/03 08:34:50;;;;;;;13.25;6.45;;;;;17.80;94004.00;;;;7393769;19;20144;-81
2023/07/03 08:37:20;;;;;;;17.75;6.80;;;;;17.90;94009.00;;;;7396046;19;20212;-81
2023/07/03 08:39:56;;;;;;;12.77;6.15;;;;;18.30;93990.00;;;;7394486;19;20136;-80
2023/07/03 08:42:32;;;;;;;18.92;6.70;;;;;18.80;94000.00;;;;7394486;19;20626;-77
2023/07/03 08:45:09;;;;;;;15.95;5.78;;;;;18.80;93990.00;;;;7394804;19;20173;-79
2023/07/03 08:47:39;;;;;;;14.07;6.25;;;;;18.50;94007.00;;;;7397189;19;20137;-81
2023/07/03 08:50:17;;;;;;;12.77;5.05;;;;;18.50;93980.00;;;;7390794;19;20152;-76
2023/07/03 08:53:02;;;;;;;13.48;4.78;;;;;18.90;94002.00;;;;7393311;19;20148;-77
2023/07/03 08:55:43;;;;;;;19.02;6.35;;;;;18.10;93986.00;;;;7394435;19;20141;-78
2023/07/03 08:58:17;;;;;;;16.65;5.63;;;;;18.60;93960.00;;;;7394193;19;20141;-79
2023/07/03 09:01:15;;;;;;;14.00;4.93;;;;;19.00;94005.00;;;;7394960;19;20552;-79
2023/07/03 09:04:00;;;;;;;16.67;5.10;;;;;18.60;94012.00;;;;7390206;19;20188;-80
2023/07/03 09:06:50;;;;;;;15.25;5.18;;;;;18.40;93985.00;;;;7391503;19;20149;-75
2023/07/03 09:09:34;;;;;;;13.90;5.28;;;;;19.60;94004.00;;;;7392444;19;20490;-78
2023/07/03 09:12:28;;;;;;;14.18;5.63;;;;;19.80;93980.00;;;;7392486;19;20218;-80
2023/07/03 09:15:12;;;;;;;15.68;4.97;;;;;20.00;93991.00;;;;7392523;19;20255;-78
2023/07/03 09:17:47;;;;;;;10.10;4.40;;;;;20.40;93992.00;;;;7394947;19;20914;-73
2023/07/03 09:20:15;;;;;;;9.63;4.45;;;;;20.50;93973.00;;;;7394401;19;20156;-73
2023/07/03 09:22:49;;;;;;;11.07;4.93;;;;;19.90;93971.00;;;;7392433;19;20637;-72
2023/07/03 09:25:46;;;;;;;9.55;5.13;;;;;20.00;93977.00;;;;7392451;19;20161;-74
2023/07/03 09:28:17;;;;;;;10.80;4.60;;;;;20.90;93966.00;;;;7391605;19;20587;-73
2023/07/03 09:30:53;;;;;;;9.68;4.55;;;;;21.40;93941.00;;;;7395113;19;20226;-74
2023/07/03 09:33:21;;;;;;;9.73;4.53;;;;;22.30;93952.00;;;;7393793;19;20173;-73
2023/07/03 09:35:55;;;;;;;11.43;4.88;;;;;22.30;93963.00;;;;7391324;19;20139;-80
2023/07/03 09:38:26;;;;;;;9.50;4.40;;;;;21.60;93994.00;;;;7393374;19;20460;-74
2023/07/03 09:41:04;;;;;;;7.95;4.60;;;;;20.90;94002.00;;;;7388977;19;20148;-75
2023/07/03 09:43:32;;;;;;;8.43;4.15;;;;;20.30;94013.00;;;;7393071;19;20133;-73
2023/07/03 09:46:16;;;;;;;10.68;3.72;;;;;19.80;93979.00;;;;7391545;19;20201;-77
2023/07/03 09:48:44;;;;;;;9.63;4.20;;;;;21.30;93961.00;;;;7391769;19;20176;-74
2023/07/03 09:51:29;;;;;;;10.23;4.05;;;;;21.80;94001.00;;;;7393370;19;20646;-75
2023/07/03 09:54:04;;;;;;;9.05;4.00;;;;;20.90;94019.00;;;;7394503;19;20536;-74
2023/07/03 09:56:39;;;;;;;6.88;3.70;;;;;20.20;94026.00;;;;7396080;19;20918;-75
2023/07/03 09:59:09;;;;;;;8.98;3.83;;;;;19.70;94032.00;;;;7398508;19;20149;-73
2023/07/03 10:01:45;;;;;;;9.57;3.30;;;;;19.30;94049.00;;;;7395684;19;20143;-74
2023/07/03 10:04:38;;;;;;;9.00;4.13;;;;;18.70;94050.00;;;;7394314;19;20160;-72
2023/07/03 10:07:12;;;;;;;7.85;4.00;;;;;18.80;94042.00;;;;7396381;19;20605;-77
2023/07/03 10:09:47;;;;;;;12.85;4.78;;;;;19.00;94003.00;;;;7396776;19;20480;-76
2023/07/03 10:12:34;;;;;;;8.55;4.35;;;;;19.40;94055.00;;;;7397355;19;20208;-74
2023/07/03 10:15:23;;;;;;;11.02;4.90;;;;;19.50;94030.00;;;;7395850;19;20180;-77
2023/07/03 10:17:59;;;;;;;11.13;5.32;;;;;20.80;94047.00;;;;7394847;19;20481;-75
2023/07/03 10:20:36;;;;;;;17.65;4.82;;;;;20.40;94052.00;;;;7398354;19;20532;-78
2023/07/03 10:23:08;;;;;;;12.38;4.32;;;;;19.90;94051.00;;;;7395755;19;20208;-82
2023/07/03 10:25:47;;;;;;;14.35;5.40;;;;;19.90;94053.00;;;;7395100;19;20148;-79
2023/07/03 10:28:31;;;;;;;10.80;5.10;;;;;19.90;94057.00;;;;7395385;19;20156;-84
2023/07/03 10:31:11;;;;;;;15.82;6.18;;;;;18.90;94053.00;;;;7396878;19;20153;-78
2023/07/03 10:33:45;;;;;;;11.38;5.45;;;;;20.20;94018.00;;;;7395546;19;20172;-79
2023/07/03 10:36:25;;;;;;;11.13;5.28;;;;;21.10;94045.00;;;;7395684;19;20575;-80
2023/07/03 10:39:04;;;;;;;13.10;6.00;;;;;21.50;94035.00;;;;7397028;19;20146;-78
2023/07/03 10:41:52;;;;;;;12.65;6.00;;;;;21.10;94039.00;;;;7396003;19;20480;-79
2023/07/03 10:44:30;;;;;;;11.13;5.93;;;;;21.20;94053.00;;;;7396132;19;20141;-79
2023/07/03 10:47:46;;;;;;;13.02;6.45;;;;;21.30;94059.00;;;;7395627;19;20148;-82
2023/07/03 10:50:17;;;;;;;15.15;7.28;;;;;20.10;94084.00;;;;7393555;19;20188;-78
2023/07/03 10:53:14;;;;;;;10.98;5.50;;;;;19.60;94086.00;;;;7396776;19;20196;-79
2023/07/03 10:56:02;;;;;;;14.70;5.70;;;;;18.70;94089.00;;;;7395545;19;20174;-78
2023/07/03 10:58:44;;;;;;;11.02;5.85;;;;;18.10;94087.00;;;;7396773;19;20157;-78
2023/07/03 11:01:48;;;;;;;11.80;6.22;;;;;18.00;94100.00;;;;7395263;19;20136;-78
2023/07/03 11:05:07;;;;;;;12.85;6.55;;;;;18.00;94105.00;;;;7396180;19;20200;-78
2023/07/03 11:08:03;;;;;;;13.32;6.38;;;;;18.50;94085.00;;;;7394990;19;20167;-79
2023/07/03 11:10:45;;;;;;;13.73;5.63;;;;;17.90;94097.00;;;;7392838;19;20136;-81
2023/07/03 11:13:59;;;;;;;17.35;5.25;;;;;17.80;94091.00;;;;7396143;19;20224;-79
2023/07/03 11:17:04;;;;;;;14.98;5.32;;;;;18.00;94096.00;;;;7390543;19;20588;-77
2023/07/03 11:20:20;;;;;;;9.82;4.25;;;;;17.90;94105.00;;;;7389435;19;20132;-78
2023/07/03 11:23:18;;;;;;;15.45;4.97;;;;;17.90;94101.00;;;;7386557;19;20148;-78
2023/07/03 11:26:11;;;;;;;15.52;4.97;;;;;18.70;94089.00;;;;7388141;19;20144;-78
2023/07/03 11:28:53;;;;;;;12.50;4.78;;;;;19.50;94077.00;;;;7386649;19;20630;-76
2023/07/03 11:31:24;;;;;;;10.43;4.20;;;;;20.30;94067.00;;;;7388070;19;20148;-76
2023/07/03 11:33:59;;;;;;;11.95;4.60;;;;;21.60;94063.00;;;;7388044;19;20212;-77
2023/07/03 11:36:43;;;;;;;12.75;4.95;;;;;21.00;94066.00;;;;7387512;19;20151;-76
2023/07/03 11:39:33;;;;;;;14.25;4.55;;;;;20.90;94055.00;;;;7387892;19;20148;-77
2023/07/03 11:42:11;;;;;;;13.82;5.03;;;;;20.90;94076.00;;;;7387908;19;20156;-77
2023/07/03 11:44:56;;;;;;;15.95;4.80;;;;;20.20;94072.00;;;;7389927;19;20149;-77
2023/07/03 11:47:34;;;;;;;11.02;4.32;;;;;20.20;94076.00;;;;7389246;19;20141;-74
2023/07/03 11:50:05;;;;;;;8.82;4.05;;;;;21.50;94074.00;;;;7388869;19;20656;-78
2023/07/03 11:52:49;;;;;;;8.57;4.03;;;;;20.90;94067.00;;;;7388101;19;20144;-77
2023/07/03 11:55:20;;;;;;;10.77;4.22;;;;;19.80;94080.00;;;;7389056;19;20164;-77
2023/07/03 11:57:56;;;;;;;8.60;3.92;;;;;20.00;94086.00;;;;7389149;19;20216;-76
2023/07/03 12:00:44;;;;;;;10.52;4.30;;;;;20.30;94070.00;;;;7388519;19;20145;-77
2023/07/03 12:03:58;;;;;;;10.60;3.88;;;;;21.40;94020.00;;;;7385221;19;20191;-76
2023/07/03 12:06:38;;;;;;;9.82;4.18;;;;;21.70;94063.00;;;;7387694;19;20152;-79
2023/07/03 12:09:18;;;;;;;8.23;3.85;;;;;22.40;94011.00;;;;7387813;19;20672;-76
2023/07/03 12:12:16;;;;;;;11.52;3.58;;;;;21.90;94018.00;;;;7389834;19;20141;-77
2023/07/03 12:14:56;;;;;;;9.75;3.70;;;;;23.50;94031.00;;;;7386398;19;20168;-78
2023/07/03 12:17:36;;;;;;;9.23;3.00;;;;;21.20;94062.00;;;;7388380;19;20145;-72
2023/07/03 12:20:18;;;;;;;6.40;2.97;;;;;22.00;94044.00;;;;7387713;19;20141;-73
2023/07/03 12:22:55;;;;;;;4.47;2.67;;;;;21.20;94053.00;;;;7386445;19;20140;-73
2023/07/03 12:25:29;;;;;;;7.00;2.63;;;;;21.10;94053.00;;;;7389703;19;20592;-70
2023/07/03 12:28:13;;;;;;;4.95;2.50;;;;;20.50;94054.00;;;;7387997;19;20216;-76
2023/07/03 12:30:47;;;;;;;5.03;1.90;;;;;20.40;94059.00;;;;7387242;19;20129;-77
2023/07/03 12:33:20;;;;;;;5.53;2.33;;;;;19.70;94055.00;;;;7386848;19;20145;-72
2023/07/03 12:35:54;;;;;;;3.78;2.03;;;;;20.70;94055.00;;;;7388498;19;20236;-73
2023/07/03 12:38:28;;;;;;;5.28;2.35;;;;;20.80;94065.00;;;;7388084;19;20158;-77
2023/07/03 12:41:04;;;;;;;3.45;1.88;;;;;20.80;94063.00;;;;7392136;19;20148;-76
2023/07/03 12:43:42;;;;;;;3.70;1.83;;;;;20.30;94051.00;;;;7396289;19;20153;-76
2023/07/03 12:46:39;;;;;;;3.95;1.90;;;;;20.20;94059.00;;;;7393525;19;20520;-76
2023/07/03 12:49:17;;;;;;;3.17;1.75;;;;;20.00;94052.00;;;;7394924;19;20599;-76
2023/07/03 12:51:53;;;;;;;2.05;1.50;;;;;20.10;94059.00;;;;7394468;19;20137;-77
2023/07/03 12:54:26;;;;;;;4.70;1.88;;;;;20.20;94056.00;;;;7397155;19;20125;-77